Time;durP1;ratioP1;P1;durP2;ratioP2;P2;SDS_P1;SDS_P2;PMS_P1;PMS_P2;Temp;Humidity;BMP_temperature;BMP_pressure;BME280_temperature;BME280_humidity;BME280_pressure;Samples;Min_cycle;Max_cycle;Signal;HPM_P1;HPM_P2
2023/11/05 00:00:02;;;;;;;2.13;1.63;;;10.20;99.90;;;;;;5118278;28;20448;-57
2023/11/05 00:02:29;;;;;;;3.00;1.60;;;10.20;99.90;;;;;;5113057;28;20429;-54
2023/11/05 00:04:58;;;;;;;4.70;1.83;;;10.10;99.90;;;;;;5121311;28;20418;-58
2023/11/05 00:07:25;;;;;;;2.40;1.73;;;10.10;99.90;;;;;;5098193;28;20522;-56
2023/11/05 00:09:53;;;;;;;2.17;1.57;;;10.10;99.90;;;;;;5097617;28;20437;-54
2023/11/05 00:12:19;;;;;;;2.63;1.70;;;10.10;99.90;;;;;;5100565;28;20454;-51
2023/11/05 00:14:47;;;;;;;2.90;1.83;;;10.20;99.90;;;;;;5077853;28;20454;-55
2023/11/05 00:17:14;;;;;;;2.57;1.83;;;10.20;99.90;;;;;;5097053;28;20547;-53
2023/11/05 00:19:41;;;;;;;2.27;1.60;;;10.20;99.90;;;;;;5098334;28;20426;-52
2023/11/05 00:22:09;;;;;;;2.47;2.27;;;10.30;99.90;;;;;;5085672;28;20453;-55
2023/11/05 00:24:36;;;;;;;2.90;1.70;;;10.30;99.90;;;;;;5088638;28;20628;-53
2023/11/05 00:27:04;;;;;;;3.43;1.77;;;10.30;99.90;;;;;;5100845;28;20480;-54
2023/11/05 00:29:31;;;;;;;3.37;1.90;;;10.30;99.90;;;;;;5111955;28;20503;-54
2023/11/05 00:31:58;;;;;;;3.97;2.20;;;10.20;99.90;;;;;;5106949;28;20782;-58
2023/11/05 00:34:25;;;;;;;4.07;2.13;;;10.20;99.90;;;;;;5115701;28;20477;-57
2023/11/05 00:36:52;;;;;;;3.80;2.03;;;10.20;99.90;;;;;;5109423;28;20794;-55
2023/11/05 00:39:20;;;;;;;3.37;2.20;;;10.20;99.90;;;;;;5096769;28;20445;-59
2023/11/05 00:41:47;;;;;;;5.03;2.13;;;10.20;99.90;;;;;;5108550;28;20441;-57
2023/11/05 00:44:14;;;;;;;6.40;2.10;;;10.20;99.90;;;;;;5117977;28;20506;-58
2023/11/05 00:46:41;;;;;;;1.97;1.60;;;10.20;99.90;;;;;;5117355;28;20449;-57
2023/11/05 00:49:09;;;;;;;3.40;2.63;;;10.20;99.90;;;;;;5117288;28;20441;-59
2023/11/05 00:51:36;;;;;;;2.63;2.20;;;10.20;99.90;;;;;;5116654;28;20481;-57
2023/11/05 00:54:03;;;;;;;3.07;2.13;;;10.20;99.90;;;;;;5099898;28;20446;-57
2023/11/05 00:56:31;;;;;;;2.70;2.43;;;10.30;99.90;;;;;;5105504;28;20438;-58
2023/11/05 00:58:59;;;;;;;5.27;2.07;;;10.30;99.90;;;;;;5097646;28;20521;-56
2023/11/05 01:01:26;;;;;;;3.93;1.67;;;10.30;99.90;;;;;;5096511;28;20437;-54
2023/11/05 01:03:53;;;;;;;3.03;2.23;;;10.30;99.90;;;;;;5096180;28;20462;-60
2023/11/05 01:06:20;;;;;;;4.60;1.60;;;10.30;99.90;;;;;;5095876;28;20531;-57
2023/11/05 01:08:48;;;;;;;5.37;2.43;;;10.30;99.90;;;;;;5097142;28;20457;-54
2023/11/05 01:11:15;;;;;;;3.60;1.87;;;10.40;99.90;;;;;;5096263;28;20480;-53
2023/11/05 01:13:43;;;;;;;3.27;2.03;;;10.30;99.90;;;;;;5096166;28;20563;-56
2023/11/05 01:16:11;;;;;;;2.90;1.80;;;10.40;99.90;;;;;;5095983;28;20493;-54
2023/11/05 01:18:38;;;;;;;3.77;1.73;;;10.30;99.90;;;;;;5095931;28;20949;-57
2023/11/05 01:21:06;;;;;;;2.63;2.10;;;10.30;99.90;;;;;;5095336;28;20457;-59
2023/11/05 01:23:33;;;;;;;1.90;1.67;;;10.30;99.90;;;;;;5096384;28;20445;-53
2023/11/05 01:26:00;;;;;;;2.13;1.37;;;10.30;99.90;;;;;;5096208;28;20477;-55
2023/11/05 01:28:27;;;;;;;6.43;2.40;;;10.40;99.90;;;;;;5106339;28;20505;-51
2023/11/05 01:30:56;;;;;;;2.70;1.50;;;10.40;99.90;;;;;;5116947;28;20434;-57
2023/11/05 01:33:23;;;;;;;2.70;2.03;;;10.40;99.90;;;;;;5115213;28;20481;-57
2023/11/05 01:35:50;;;;;;;1.83;1.17;;;10.40;99.90;;;;;;5111190;28;20519;-56
2023/11/05 01:38:17;;;;;;;3.30;1.90;;;10.30;99.90;;;;;;5103090;28;20496;-53
2023/11/05 01:40:44;;;;;;;2.17;1.77;;;10.30;99.90;;;;;;5115555;28;20512;-56
2023/11/05 01:43:11;;;;;;;3.30;1.93;;;10.30;99.90;;;;;;5094408;28;20453;-48
2023/11/05 01:45:40;;;;;;;2.40;1.63;;;10.30;99.90;;;;;;5110890;28;20473;-54
2023/11/05 01:48:08;;;;;;;5.77;1.37;;;10.30;99.90;;;;;;5117533;28;20447;-58
2023/11/05 01:50:35;;;;;;;3.00;1.50;;;10.30;99.90;;;;;;5115256;28;20562;-54
2023/11/05 01:53:03;;;;;;;3.97;1.60;;;10.30;99.90;;;;;;5108981;28;20469;-54
2023/11/05 01:55:30;;;;;;;1.93;1.63;;;10.30;99.90;;;;;;5096218;28;20473;-55
2023/11/05 01:57:57;;;;;;;2.90;1.20;;;10.30;99.90;;;;;;5094098;28;20574;-54
2023/11/05 02:00:24;;;;;;;3.20;1.60;;;10.20;99.90;;;;;;5096175;28;20457;-56
2023/11/05 02:02:52;;;;;;;2.60;1.53;;;10.10;99.90;;;;;;5119190;28;20481;-58
2023/11/05 02:05:22;;;;;;;2.10;1.30;;;10.10;99.90;;;;;;5118113;28;20495;-54
2023/11/05 02:07:48;;;;;;;2.50;1.97;;;10.10;99.90;;;;;;5115296;28;20457;-56
2023/11/05 02:10:17;;;;;;;2.43;1.57;;;10.10;99.90;;;;;;5096471;28;20453;-55
2023/11/05 02:12:56;;;;;;;2.80;1.30;;;10.10;99.90;;;;;;5095535;28;20505;-56
2023/11/05 02:15:25;;;;;;;1.50;1.17;;;10.00;99.90;;;;;;5118622;28;20410;-53
2023/11/05 02:17:52;;;;;;;2.10;1.50;;;9.90;99.90;;;;;;5114107;28;20481;-57
2023/11/05 02:20:21;;;;;;;1.57;1.10;;;9.90;99.90;;;;;;5096652;28;20533;-59
2023/11/05 02:22:49;;;;;;;2.80;1.63;;;9.80;99.90;;;;;;5103269;28;20457;-59
2023/11/05 02:25:19;;;;;;;1.73;1.20;;;9.80;99.90;;;;;;5097162;28;20484;-55
2023/11/05 02:27:48;;;;;;;2.80;1.47;;;9.70;99.90;;;;;;5095059;28;20459;-57
2023/11/05 02:30:18;;;;;;;1.93;1.57;;;9.70;99.90;;;;;;5115899;28;20422;-54
2023/11/05 02:32:45;;;;;;;2.80;1.50;;;9.60;99.90;;;;;;5117863;28;20420;-56
2023/11/05 02:35:11;;;;;;;3.20;1.80;;;9.60;99.90;;;;;;5100757;28;20512;-52
2023/11/05 02:37:39;;;;;;;2.40;1.80;;;9.60;99.90;;;;;;5117706;28;20519;-55
2023/11/05 02:40:08;;;;;;;1.70;1.30;;;9.50;99.90;;;;;;5112220;28;20449;-57
2023/11/05 02:42:36;;;;;;;2.10;1.43;;;9.50;99.90;;;;;;5118644;28;20452;-57
2023/11/05 02:45:04;;;;;;;1.47;1.07;;;9.50;99.90;;;;;;5104670;28;20540;-54
2023/11/05 02:47:31;;;;;;;2.63;1.47;;;9.40;99.90;;;;;;5092983;28;20538;-58
2023/11/05 02:49:58;;;;;;;2.70;1.43;;;9.40;99.90;;;;;;5109018;28;20461;-54
2023/11/05 02:52:25;;;;;;;2.23;1.60;;;9.40;99.90;;;;;;5098363;28;20508;-52
2023/11/05 02:54:51;;;;;;;2.17;1.60;;;9.30;99.90;;;;;;5091192;28;20452;-56
2023/11/05 02:57:20;;;;;;;2.03;1.50;;;9.30;99.90;;;;;;5095670;28;20569;-56
2023/11/05 02:59:49;;;;;;;2.93;1.23;;;9.30;99.90;;;;;;5107643;28;20476;-56
2023/11/05 03:02:16;;;;;;;2.13;1.50;;;9.30;99.90;;;;;;5107454;28;20452;-54
2023/11/05 03:04:42;;;;;;;3.17;1.93;;;9.30;99.90;;;;;;5113712;28;20765;-54
2023/11/05 03:07:09;;;;;;;3.23;1.50;;;9.30;99.90;;;;;;5116272;28;20426;-53
2023/11/05 03:09:37;;;;;;;3.30;1.90;;;9.30;99.90;;;;;;5112985;28;20433;-56
2023/11/05 03:12:04;;;;;;;1.93;1.60;;;9.30;99.90;;;;;;5094333;28;20445;-57
2023/11/05 03:14:31;;;;;;;1.60;1.50;;;9.30;99.90;;;;;;5102307;28;20489;-54
2023/11/05 03:17:00;;;;;;;2.20;1.37;;;9.30;99.90;;;;;;5103286;28;20458;-58
2023/11/05 03:19:27;;;;;;;1.90;1.67;;;9.30;99.90;;;;;;5094568;28;20437;-56
2023/11/05 03:21:54;;;;;;;3.43;1.60;;;9.30;99.90;;;;;;5117532;28;20425;-58
2023/11/05 03:24:22;;;;;;;3.60;1.70;;;9.30;99.90;;;;;;5117464;28;20456;-56
2023/11/05 03:26:49;;;;;;;5.53;2.50;;;9.30;99.90;;;;;;5101241;28;20460;-54
2023/11/05 03:29:19;;;;;;;2.10;1.70;;;9.30;99.90;;;;;;5122187;28;20441;-54
2023/11/05 03:31:48;;;;;;;2.50;1.83;;;9.30;99.90;;;;;;5111624;28;20449;-58
2023/11/05 03:34:18;;;;;;;6.30;1.80;;;9.30;99.90;;;;;;5098038;28;20524;-58
2023/11/05 03:36:45;;;;;;;2.00;1.80;;;9.30;99.90;;;;;;5119229;28;20500;-53
2023/11/05 03:39:12;;;;;;;3.20;1.93;;;9.30;99.90;;;;;;5122034;28;20456;-53
2023/11/05 03:41:39;;;;;;;4.20;2.70;;;9.30;99.90;;;;;;5115516;28;20484;-59
2023/11/05 03:44:06;;;;;;;2.90;1.90;;;9.30;99.90;;;;;;5114004;28;20469;-54
2023/11/05 03:46:33;;;;;;;3.87;2.10;;;9.30;99.90;;;;;;5117501;28;20429;-55
2023/11/05 03:49:00;;;;;;;3.10;2.10;;;9.30;99.90;;;;;;5101932;28;20514;-56
2023/11/05 03:51:28;;;;;;;2.90;1.70;;;9.30;99.90;;;;;;5120943;28;20453;-59
2023/11/05 03:53:55;;;;;;;8.73;2.23;;;9.40;99.90;;;;;;5109142;28;20838;-53
2023/11/05 03:56:22;;;;;;;3.97;1.93;;;9.40;99.90;;;;;;5104489;28;20466;-56
2023/11/05 03:58:49;;;;;;;4.03;1.60;;;9.40;99.90;;;;;;5118408;28;20476;-57
2023/11/05 04:01:17;;;;;;;2.07;1.67;;;9.30;99.90;;;;;;5098383;28;20455;-59
2023/11/05 04:03:44;;;;;;;5.70;1.97;;;9.30;99.90;;;;;;5097805;28;20448;-56
2023/11/05 04:06:11;;;;;;;2.50;2.30;;;9.30;99.90;;;;;;5096680;28;20461;-56
2023/11/05 04:08:39;;;;;;;2.30;1.70;;;9.30;99.90;;;;;;5097553;28;20476;-52
2023/11/05 04:11:06;;;;;;;3.73;1.90;;;9.30;99.90;;;;;;5115687;28;20441;-54
2023/11/05 04:13:33;;;;;;;2.60;1.90;;;9.30;99.90;;;;;;5117559;28;20444;-57
2023/11/05 04:16:00;;;;;;;3.83;1.43;;;9.30;99.90;;;;;;5117133;28;20444;-53
2023/11/05 04:18:30;;;;;;;3.37;2.10;;;9.30;99.90;;;;;;5120972;28;20488;-55
2023/11/05 04:20:57;;;;;;;5.50;2.07;;;9.30;99.90;;;;;;5102736;28;20421;-57
2023/11/05 04:23:24;;;;;;;2.77;2.00;;;9.30;99.90;;;;;;5096396;28;20491;-58
2023/11/05 04:25:53;;;;;;;3.53;3.10;;;9.30;99.90;;;;;;5096955;28;20511;-53
2023/11/05 04:28:20;;;;;;;1.70;1.20;;;9.30;99.90;;;;;;5097027;28;20785;-54
2023/11/05 04:30:47;;;;;;;2.60;1.33;;;9.30;99.90;;;;;;5096280;28;20509;-56
2023/11/05 04:33:14;;;;;;;2.77;1.53;;;9.40;99.90;;;;;;5118751;28;20422;-58
2023/11/05 04:35:41;;;;;;;3.27;1.97;;;9.40;99.90;;;;;;5115945;28;20437;-56
2023/11/05 04:38:09;;;;;;;2.07;1.33;;;9.40;99.90;;;;;;5097428;28;20786;-54
2023/11/05 04:40:36;;;;;;;2.30;1.60;;;9.40;99.90;;;;;;5117227;28;20496;-57
2023/11/05 04:43:09;;;;;;;1.70;1.30;;;9.40;99.90;;;;;;5120717;28;20494;-56
2023/11/05 04:45:36;;;;;;;1.70;1.50;;;9.40;99.90;;;;;;5101226;28;20414;-56
2023/11/05 04:48:04;;;;;;;3.30;2.00;;;9.40;99.90;;;;;;5096644;28;20437;-55
2023/11/05 04:50:31;;;;;;;2.27;1.97;;;9.50;99.90;;;;;;5110677;28;20452;-57
2023/11/05 04:52:58;;;;;;;1.77;1.67;;;9.50;99.90;;;;;;5109776;28;20450;-55
2023/11/05 04:55:25;;;;;;;3.87;1.97;;;9.50;99.90;;;;;;5099558;28;20481;-56
2023/11/05 04:57:53;;;;;;;2.53;1.40;;;9.50;99.90;;;;;;5101812;28;20482;-56
2023/11/05 05:00:21;;;;;;;2.40;1.33;;;9.50;99.90;;;;;;5113267;28;20442;-57
2023/11/05 05:02:49;;;;;;;3.03;1.07;;;9.60;99.90;;;;;;5111001;28;20461;-58
2023/11/05 05:05:16;;;;;;;2.10;1.63;;;9.50;99.90;;;;;;5096562;28;20445;-57
2023/11/05 05:07:43;;;;;;;1.83;1.50;;;9.50;99.90;;;;;;5099166;28;20477;-54
2023/11/05 05:10:12;;;;;;;1.57;1.40;;;9.50;99.90;;;;;;5120153;28;20422;-57
2023/11/05 05:12:39;;;;;;;1.73;1.27;;;9.50;99.90;;;;;;5119377;28;20492;-59
2023/11/05 05:15:08;;;;;;;4.77;1.27;;;9.50;99.90;;;;;;5099914;28;20454;-55
2023/11/05 05:17:36;;;;;;;3.40;1.77;;;9.50;99.90;;;;;;5098304;28;20446;-55
2023/11/05 05:20:04;;;;;;;1.47;1.13;;;9.50;99.90;;;;;;5096317;28;20461;-55
2023/11/05 05:22:34;;;;;;;3.17;1.50;;;9.50;99.90;;;;;;5102874;28;20477;-57
2023/11/05 05:25:01;;;;;;;1.97;1.77;;;9.50;99.90;;;;;;5119694;28;20455;-58
2023/11/05 05:27:28;;;;;;;1.20;1.10;;;9.60;99.90;;;;;;5119663;28;20406;-54
2023/11/05 05:29:55;;;;;;;1.67;1.10;;;9.60;99.90;;;;;;5117946;28;20437;-57
2023/11/05 05:32:21;;;;;;;1.40;1.30;;;9.60;99.90;;;;;;5106042;28;20506;-56
2023/11/05 05:34:51;;;;;;;2.93;1.40;;;9.60;99.90;;;;;;5113129;28;20430;-53
2023/11/05 05:37:19;;;;;;;4.10;1.20;;;9.60;99.90;;;;;;5120005;28;20433;-52
2023/11/05 05:39:48;;;;;;;1.90;1.20;;;9.60;99.90;;;;;;5100623;28;20480;-57
2023/11/05 05:42:15;;;;;;;1.47;1.10;;;9.60;99.90;;;;;;5119773;28;20726;-54
2023/11/05 05:44:42;;;;;;;1.73;1.13;;;9.60;99.90;;;;;;5117908;28;20445;-56
2023/11/05 05:47:09;;;;;;;1.57;1.37;;;9.70;99.90;;;;;;5116469;28;20448;-57
2023/11/05 05:49:36;;;;;;;4.20;1.90;;;9.60;99.90;;;;;;5112931;28;20458;-56
2023/11/05 05:52:04;;;;;;;4.63;2.37;;;9.70;99.90;;;;;;5108357;28;20460;-56
2023/11/05 05:54:32;;;;;;;1.70;1.10;;;9.60;99.90;;;;;;5094521;28;20584;-58
2023/11/05 05:56:58;;;;;;;1.50;1.30;;;9.70;99.90;;;;;;5095442;28;20452;-53
2023/11/05 05:59:25;;;;;;;1.20;0.90;;;9.70;99.90;;;;;;5102233;28;20540;-56
2023/11/05 06:01:52;;;;;;;1.90;1.20;;;9.70;99.90;;;;;;5119316;28;20437;-54
2023/11/05 06:04:19;;;;;;;1.70;1.20;;;9.70;99.90;;;;;;5104505;28;20435;-56
2023/11/05 06:06:46;;;;;;;1.50;1.10;;;9.70;99.90;;;;;;5094350;28;20477;-56
2023/11/05 06:09:19;;;;;;;1.97;1.00;;;9.70;99.90;;;;;;5104508;28;20441;-53
2023/11/05 06:11:47;;;;;;;4.20;1.43;;;9.60;99.90;;;;;;5111153;28;20517;-56
2023/11/05 06:14:14;;;;;;;1.30;1.13;;;9.60;99.90;;;;;;5107670;28;20481;-54
2023/11/05 06:16:41;;;;;;;1.67;1.23;;;9.60;99.90;;;;;;5098983;28;20438;-56
2023/11/05 06:19:08;;;;;;;1.93;1.10;;;9.60;99.90;;;;;;5107497;28;20497;-56
2023/11/05 06:21:36;;;;;;;1.70;0.97;;;9.60;99.90;;;;;;5106348;28;20432;-55
2023/11/05 06:24:03;;;;;;;1.17;0.90;;;9.60;99.90;;;;;;5118290;28;20453;-58
2023/11/05 06:26:32;;;;;;;4.03;1.67;;;9.60;99.90;;;;;;5112158;28;20438;-57
2023/11/05 06:28:59;;;;;;;5.60;1.60;;;9.60;99.90;;;;;;5117003;28;20478;-58
2023/11/05 06:31:26;;;;;;;1.93;1.37;;;9.60;99.90;;;;;;5115153;28;20493;-56
2023/11/05 06:33:54;;;;;;;2.40;1.33;;;9.60;99.90;;;;;;5115158;28;20452;-55
2023/11/05 06:36:21;;;;;;;4.70;1.60;;;9.60;99.90;;;;;;5115427;28;20469;-55
2023/11/05 06:38:48;;;;;;;3.17;1.67;;;9.60;99.90;;;;;;5115089;28;20492;-58
2023/11/05 06:41:15;;;;;;;1.37;1.00;;;9.60;99.90;;;;;;5104514;28;20429;-58
2023/11/05 06:43:44;;;;;;;1.60;1.40;;;9.70;99.90;;;;;;5116020;28;20472;-56
2023/11/05 06:46:11;;;;;;;1.53;1.30;;;9.70;99.90;;;;;;5092992;28;20457;-58
2023/11/05 06:48:39;;;;;;;1.40;1.30;;;9.70;99.90;;;;;;5094323;28;20495;-56
2023/11/05 06:51:06;;;;;;;3.13;1.30;;;9.70;99.90;;;;;;5117151;28;20457;-57
2023/11/05 06:53:34;;;;;;;3.67;1.20;;;9.70;99.90;;;;;;5098116;28;20449;-54
2023/11/05 06:56:01;;;;;;;2.20;1.30;;;9.80;99.90;;;;;;5087570;28;20488;-56
2023/11/05 06:58:28;;;;;;;3.83;1.33;;;9.90;99.90;;;;;;5114708;28;20453;-53
2023/11/05 07:00:57;;;;;;;7.03;1.47;;;9.90;99.90;;;;;;5103847;28;20544;-58
2023/11/05 07:03:24;;;;;;;1.40;1.10;;;10.00;99.90;;;;;;5100985;28;21019;-54
2023/11/05 07:05:52;;;;;;;2.27;1.70;;;10.10;99.90;;;;;;5115936;27;20476;-59
2023/11/05 07:08:19;;;;;;;1.60;1.50;;;10.20;99.90;;;;;;5124209;27;20436;-54
2023/11/05 07:10:46;;;;;;;1.97;1.77;;;10.20;99.90;;;;;;5123581;28;20432;-53
2023/11/05 07:13:13;;;;;;;6.80;1.93;;;10.20;99.90;;;;;;5104586;28;20442;-55
2023/11/05 07:15:41;;;;;;;1.90;1.50;;;10.30;99.90;;;;;;5095090;28;20427;-56
2023/11/05 07:18:11;;;;;;;2.90;1.67;;;10.30;99.90;;;;;;5124418;28;20449;-58
2023/11/05 07:20:38;;;;;;;2.07;1.87;;;10.40;99.90;;;;;;5122943;28;20999;-55
2023/11/05 07:23:06;;;;;;;2.70;1.47;;;10.40;99.90;;;;;;5103590;28;20542;-53
2023/11/05 07:25:33;;;;;;;1.70;1.47;;;10.40;99.90;;;;;;5098182;28;20433;-56
2023/11/05 07:28:00;;;;;;;2.10;1.60;;;10.50;99.90;;;;;;5101234;28;20445;-57
2023/11/05 07:30:27;;;;;;;1.93;1.73;;;10.40;99.90;;;;;;5100285;28;20453;-52
2023/11/05 07:32:54;;;;;;;3.27;2.30;;;10.40;99.90;;;;;;5099151;28;20518;-57
2023/11/05 07:35:26;;;;;;;4.70;2.40;;;10.40;99.90;;;;;;5111342;28;20479;-58
2023/11/05 07:37:54;;;;;;;4.87;3.30;;;10.40;99.90;;;;;;5122716;28;20441;-55
2023/11/05 07:40:22;;;;;;;5.03;3.37;;;10.50;99.90;;;;;;5119920;28;20465;-56
2023/11/05 07:42:50;;;;;;;5.50;2.70;;;10.50;99.90;;;;;;5106850;28;20525;-53
2023/11/05 07:45:17;;;;;;;5.50;3.10;;;10.50;99.90;;;;;;5109141;28;20427;-53
2023/11/05 07:47:45;;;;;;;2.93;2.20;;;10.60;99.90;;;;;;5092950;28;20449;-53
2023/11/05 07:50:14;;;;;;;1.83;1.50;;;10.60;99.90;;;;;;5093390;28;20931;-52
2023/11/05 07:52:43;;;;;;;2.70;1.93;;;10.60;99.90;;;;;;5108904;28;20519;-54
2023/11/05 07:55:11;;;;;;;9.30;2.60;;;10.60;99.90;;;;;;5109109;28;20456;-58
2023/11/05 07:57:39;;;;;;;3.37;2.30;;;10.60;99.90;;;;;;5091195;28;21021;-53
2023/11/05 08:00:15;;;;;;;4.73;2.27;;;10.60;99.90;;;;;;5094478;28;20486;-53
2023/11/05 08:02:42;;;;;;;3.23;2.17;;;10.60;99.90;;;;;;5111550;28;20460;-55
2023/11/05 08:05:10;;;;;;;4.30;2.70;;;10.60;99.90;;;;;;5104868;27;20924;-53
2023/11/05 08:07:37;;;;;;;3.00;2.60;;;10.60;99.90;;;;;;5097589;28;20484;-53
2023/11/05 08:10:07;;;;;;;1.70;1.60;;;10.60;99.90;;;;;;5122032;27;20457;-51
2023/11/05 08:12:34;;;;;;;2.10;1.70;;;10.60;99.90;;;;;;5114555;28;20449;-56
2023/11/05 08:15:02;;;;;;;5.07;1.90;;;10.60;99.90;;;;;;5093466;28;20533;-53
2023/11/05 08:17:31;;;;;;;3.20;1.20;;;10.70;99.90;;;;;;5102909;28;20468;-56
2023/11/05 08:20:00;;;;;;;3.10;1.67;;;10.80;99.90;;;;;;5118411;28;20449;-58
2023/11/05 08:22:30;;;;;;;5.13;2.23;;;10.70;99.90;;;;;;5103492;28;20454;-59
2023/11/05 08:24:57;;;;;;;2.53;1.60;;;10.70;99.90;;;;;;5108248;28;20460;-55
2023/11/05 08:27:25;;;;;;;4.87;2.30;;;10.80;99.90;;;;;;5106805;28;20518;-53
2023/11/05 08:29:52;;;;;;;2.20;1.93;;;10.80;99.90;;;;;;5098686;28;20510;-52
2023/11/05 08:32:20;;;;;;;4.57;2.30;;;10.80;99.90;;;;;;5112699;28;20460;-51
2023/11/05 08:34:50;;;;;;;2.80;1.73;;;10.90;99.90;;;;;;5114463;28;20462;-53
2023/11/05 08:37:17;;;;;;;3.70;2.27;;;10.90;99.90;;;;;;5106975;28;20445;-58
2023/11/05 08:39:44;;;;;;;3.30;2.27;;;10.80;99.90;;;;;;5103217;28;20471;-54
2023/11/05 08:42:12;;;;;;;3.53;2.67;;;10.90;99.90;;;;;;5103092;28;20485;-56
2023/11/05 08:44:41;;;;;;;2.13;1.87;;;10.80;99.90;;;;;;5101463;28;20485;-58
2023/11/05 08:47:08;;;;;;;5.23;2.77;;;10.80;99.90;;;;;;5098140;28;20458;-56
2023/11/05 08:49:36;;;;;;;5.27;3.13;;;10.80;99.90;;;;;;5101189;28;20467;-58
2023/11/05 08:52:05;;;;;;;7.50;3.13;;;10.80;99.90;;;;;;5096824;28;20457;-50
2023/11/05 08:54:34;;;;;;;3.50;3.00;;;10.70;99.90;;;;;;5099333;28;20446;-56
2023/11/05 08:57:00;;;;;;;5.30;3.13;;;10.70;99.90;;;;;;5081660;28;20477;-55
2023/11/05 08:59:28;;;;;;;8.53;4.43;;;10.70;99.90;;;;;;5093922;28;20516;-56
2023/11/05 09:01:58;;;;;;;5.17;3.67;;;10.70;99.90;;;;;;5116102;28;20458;-52
2023/11/05 09:04:25;;;;;;;7.77;4.43;;;10.70;99.90;;;;;;5094182;28;20534;-58
2023/11/05 09:06:52;;;;;;;6.70;3.80;;;10.60;99.90;;;;;;5098438;28;20476;-57
2023/11/05 09:09:19;;;;;;;6.60;4.00;;;10.60;99.90;;;;;;5098847;28;20469;-57
2023/11/05 09:11:47;;;;;;;6.10;3.63;;;10.60;99.90;;;;;;5104221;27;20450;-58
2023/11/05 09:14:14;;;;;;;10.40;5.10;;;10.60;99.90;;;;;;5095559;28;20509;-58
2023/11/05 09:16:41;;;;;;;7.30;3.70;;;10.60;99.90;;;;;;5081712;28;20477;-55
2023/11/05 09:19:10;;;;;;;4.03;2.77;;;10.70;99.90;;;;;;5082029;28;20491;-56
2023/11/05 09:21:41;;;;;;;2.60;2.30;;;10.70;99.90;;;;;;5103583;28;20454;-55
2023/11/05 09:24:09;;;;;;;7.17;2.60;;;10.70;99.90;;;;;;5094181;28;20464;-56
2023/11/05 09:26:36;;;;;;;4.03;2.40;;;10.80;99.90;;;;;;5081222;28;20474;-57
2023/11/05 09:29:04;;;;;;;10.43;2.20;;;10.80;99.90;;;;;;5111539;28;20509;-53
2023/11/05 09:31:31;;;;;;;2.90;2.17;;;10.80;99.90;;;;;;5109939;28;20493;-52
2023/11/05 09:33:58;;;;;;;4.43;2.43;;;10.80;99.90;;;;;;5103025;28;20461;-56
2023/11/05 09:36:27;;;;;;;2.73;2.30;;;10.90;99.90;;;;;;5108343;28;20485;-54
2023/11/05 09:38:56;;;;;;;3.70;2.43;;;10.90;99.90;;;;;;5096963;28;20494;-55
2023/11/05 09:41:26;;;;;;;7.90;2.80;;;10.90;99.90;;;;;;5085126;28;20465;-53
2023/11/05 09:43:53;;;;;;;3.63;2.27;;;11.00;99.90;;;;;;5110615;28;20478;-54
2023/11/05 09:46:24;;;;;;;3.77;2.23;;;11.00;99.90;;;;;;5085878;28;20514;-58
2023/11/05 09:48:51;;;;;;;5.00;3.03;;;11.00;99.90;;;;;;5104426;28;20481;-56
2023/11/05 09:51:18;;;;;;;2.60;1.93;;;11.00;99.90;;;;;;5106318;28;20479;-58
2023/11/05 09:53:47;;;;;;;2.40;1.80;;;11.00;99.90;;;;;;5097169;28;20441;-55
2023/11/05 09:56:14;;;;;;;2.63;1.67;;;11.00;99.90;;;;;;5114294;28;20478;-61
2023/11/05 09:58:41;;;;;;;1.63;1.30;;;11.00;99.90;;;;;;5101348;28;20476;-56
2023/11/05 10:01:08;;;;;;;3.33;2.70;;;11.00;99.90;;;;;;5082329;28;20481;-55
2023/11/05 10:03:36;;;;;;;3.10;1.90;;;10.90;99.90;;;;;;5090110;28;20564;-53
2023/11/05 10:06:04;;;;;;;4.30;2.50;;;11.00;99.90;;;;;;5100609;28;20434;-52
2023/11/05 10:08:34;;;;;;;4.50;2.10;;;11.00;99.90;;;;;;5102404;28;20477;-57
2023/11/05 10:11:06;;;;;;;1.73;1.60;;;11.00;99.90;;;;;;5104821;28;20833;-58
2023/11/05 10:13:33;;;;;;;2.47;1.47;;;11.00;99.90;;;;;;5103529;28;20734;-53
2023/11/05 10:16:01;;;;;;;2.63;1.80;;;11.00;99.90;;;;;;5107593;28;20474;-60
2023/11/05 10:18:28;;;;;;;1.20;1.10;;;11.00;99.90;;;;;;5112081;28;20464;-55
2023/11/05 10:20:56;;;;;;;4.10;2.07;;;10.90;99.90;;;;;;5091086;28;20657;-56
2023/11/05 10:23:24;;;;;;;6.60;1.83;;;10.90;99.90;;;;;;5112130;28;20442;-52
2023/11/05 10:25:54;;;;;;;2.17;1.63;;;11.00;99.90;;;;;;5107859;28;20468;-55
2023/11/05 10:28:24;;;;;;;3.57;1.67;;;11.00;99.90;;;;;;5096009;28;20462;-57
2023/11/05 10:30:54;;;;;;;3.87;2.20;;;11.00;99.90;;;;;;5092466;28;20566;-57
2023/11/05 10:33:21;;;;;;;5.50;2.10;;;11.00;99.90;;;;;;5100429;28;20407;-51
2023/11/05 10:35:47;;;;;;;7.60;2.00;;;11.00;99.90;;;;;;5115778;28;20441;-56
2023/11/05 10:38:16;;;;;;;3.10;1.60;;;11.10;99.90;;;;;;5113761;28;20472;-56
2023/11/05 10:40:43;;;;;;;4.53;1.97;;;11.20;99.90;;;;;;5109680;28;20473;-56
2023/11/05 10:43:11;;;;;;;2.53;1.60;;;11.20;99.90;;;;;;5098471;28;20535;-52
2023/11/05 10:45:39;;;;;;;1.87;1.53;;;11.30;99.90;;;;;;5107027;28;20912;-54
2023/11/05 10:48:09;;;;;;;4.27;1.60;;;11.30;99.90;;;;;;5100730;28;20462;-52
2023/11/05 10:50:37;;;;;;;2.00;1.33;;;11.40;99.90;;;;;;5091353;28;20446;-51
2023/11/05 10:53:07;;;;;;;2.40;1.37;;;11.40;99.90;;;;;;5083403;28;20490;-53
2023/11/05 10:55:35;;;;;;;5.00;2.27;;;11.50;99.90;;;;;;5106435;28;20441;-54
2023/11/05 10:58:03;;;;;;;1.90;1.20;;;11.50;99.90;;;;;;5104265;28;20474;-53
2023/11/05 11:01:05;;;;;;;2.83;1.63;;;11.50;99.90;;;;;;5088452;28;20568;-57
2023/11/05 11:03:32;;;;;;;2.57;1.50;;;11.50;99.90;;;;;;5011040;28;20954;-58
2023/11/05 11:06:00;;;;;;;1.73;1.10;;;11.60;99.90;;;;;;5060616;28;20540;-59
2023/11/05 11:08:29;;;;;;;7.80;1.60;;;11.60;99.90;;;;;;5083736;28;20485;-57
2023/11/05 11:11:16;;;;;;;2.60;1.93;;;11.70;99.90;;;;;;5095192;28;20497;-58
2023/11/05 11:13:54;;;;;;;2.90;1.90;;;11.90;99.90;;;;;;5105940;28;20481;-56
2023/11/05 11:16:24;;;;;;;2.77;1.97;;;11.90;99.90;;;;;;5094418;28;20441;-56
2023/11/05 11:18:54;;;;;;;1.70;1.37;;;12.00;99.90;;;;;;5104890;28;20429;-51
2023/11/05 11:21:22;;;;;;;3.43;1.37;;;12.10;99.90;;;;;;5087983;28;20524;-55
2023/11/05 11:23:50;;;;;;;6.27;1.80;;;12.20;99.90;;;;;;5099445;28;20438;-51
2023/11/05 11:26:22;;;;;;;2.27;1.73;;;12.20;99.90;;;;;;5104984;28;20478;-54
2023/11/05 11:29:04;;;;;;;2.33;1.30;;;12.30;99.90;;;;;;5078579;28;20829;-56
2023/11/05 11:31:35;;;;;;;3.67;1.57;;;12.40;99.90;;;;;;5116756;28;20503;-54
2023/11/05 11:34:04;;;;;;;2.03;1.23;;;12.50;99.90;;;;;;5088018;28;20755;-51
2023/11/05 11:36:31;;;;;;;2.03;1.10;;;12.50;99.90;;;;;;5112634;28;20458;-57
2023/11/05 11:38:58;;;;;;;3.10;1.43;;;12.50;99.90;;;;;;5099131;28;20530;-60
2023/11/05 11:41:34;;;;;;;5.30;1.50;;;12.50;99.90;;;;;;5114810;28;20493;-57
2023/11/05 11:44:01;;;;;;;2.30;1.57;;;12.50;99.90;;;;;;5094917;28;20429;-59
2023/11/05 11:46:28;;;;;;;1.70;1.40;;;12.50;99.90;;;;;;5090041;28;20445;-52
2023/11/05 11:48:56;;;;;;;2.20;1.20;;;12.50;99.90;;;;;;5098756;28;20414;-57
2023/11/05 11:51:23;;;;;;;2.83;1.03;;;12.40;99.90;;;;;;5108923;28;20454;-55
2023/11/05 11:53:50;;;;;;;2.03;1.20;;;12.40;99.90;;;;;;5093327;28;20782;-60
2023/11/05 11:56:19;;;;;;;2.40;0.90;;;12.50;99.90;;;;;;5101996;28;20414;-64
2023/11/05 11:58:46;;;;;;;1.90;1.20;;;12.50;99.90;;;;;;5086377;28;20457;-54
2023/11/05 12:01:18;;;;;;;4.70;1.40;;;12.50;99.90;;;;;;5112903;28;20461;-56
2023/11/05 12:03:46;;;;;;;4.70;1.40;;;12.60;99.90;;;;;;5090068;28;20462;-60
2023/11/05 12:06:14;;;;;;;6.37;1.80;;;12.60;99.90;;;;;;5091323;28;20462;-57
2023/11/05 12:08:42;;;;;;;2.23;1.10;;;12.70;99.90;;;;;;5084613;28;20475;-60
2023/11/05 12:11:11;;;;;;;4.93;1.30;;;12.80;99.90;;;;;;5088833;28;20426;-61
2023/11/05 12:13:42;;;;;;;1.87;1.63;;;12.90;99.90;;;;;;5095333;28;20474;-60
2023/11/05 12:16:11;;;;;;;2.20;1.53;;;13.00;99.90;;;;;;5106522;28;20437;-60
2023/11/05 12:18:47;;;;;;;3.53;1.30;;;13.10;99.90;;;;;;5107944;28;20513;-60
2023/11/05 12:21:16;;;;;;;2.83;0.97;;;13.10;99.90;;;;;;5110622;28;20531;-62
2023/11/05 12:23:44;;;;;;;5.13;1.53;;;13.20;99.90;;;;;;5111230;28;20755;-63
2023/11/05 12:26:12;;;;;;;5.50;1.33;;;13.30;99.90;;;;;;5103216;28;20461;-61
2023/11/05 12:28:40;;;;;;;2.23;1.20;;;13.20;99.90;;;;;;5085064;28;20462;-60
2023/11/05 12:31:08;;;;;;;3.67;1.50;;;13.20;99.90;;;;;;5085298;28;20502;-61
2023/11/05 12:33:36;;;;;;;1.93;1.70;;;13.20;99.90;;;;;;5086410;28;20525;-59
2023/11/05 12:36:12;;;;;;;2.67;1.60;;;13.30;99.90;;;;;;5094322;28;20511;-58
2023/11/05 12:38:40;;;;;;;2.60;0.83;;;13.40;99.90;;;;;;5110384;28;20479;-59
2023/11/05 12:41:07;;;;;;;3.53;1.17;;;13.50;99.90;;;;;;5111801;28;20470;-60
2023/11/05 12:43:34;;;;;;;3.60;1.47;;;13.50;99.90;;;;;;5078985;28;20598;-58
2023/11/05 12:46:01;;;;;;;2.30;1.33;;;13.60;99.90;;;;;;5095250;28;20441;-62
2023/11/05 12:48:30;;;;;;;2.03;1.50;;;13.60;99.90;;;;;;5097661;28;20445;-62
2023/11/05 12:50:57;;;;;;;1.67;1.20;;;13.60;99.90;;;;;;5095251;28;20556;-60
2023/11/05 12:53:24;;;;;;;5.43;1.13;;;13.60;99.90;;;;;;5097693;28;20479;-60